Aviation Digital Data Service (ADDS)

Output produced by TAFs form (1739 UTC 21 April 2018)
found at http://aviationweather.gov/adds/tafs/
 
RJFR 211700Z 02002KT CAVOK 17/14 Q1020
TAF RJFR 211716Z 2118/2300 25005KT 8000 FEW020 
     BECMG 2119/2121 07003KT 
     TEMPO 2119/2200 0500 FG VV002 
     TEMPO 2200/2202 1500 BR